sensor_id;sensor_type;location;lat;lon;timestamp;P1;durP1;ratioP1;P2;durP2;ratioP2
5521;SDS011;2783;48.730;8.006;2023-12-04T00:01:52;2.10;;;2.00;;
5521;SDS011;2783;48.730;8.006;2023-12-04T00:04:17;2.03;;;1.92;;
5521;SDS011;2783;48.730;8.006;2023-12-04T00:06:43;1.90;;;1.80;;
5521;SDS011;2783;48.730;8.006;2023-12-04T00:09:08;2.00;;;1.90;;
5521;SDS011;2783;48.730;8.006;2023-12-04T00:11:34;2.00;;;1.90;;
5521;SDS011;2783;48.730;8.006;2023-12-04T00:13:59;1.77;;;1.77;;
5521;SDS011;2783;48.730;8.006;2023-12-04T00:16:25;2.10;;;2.00;;
5521;SDS011;2783;48.730;8.006;2023-12-04T00:18:51;2.10;;;2.00;;
5521;SDS011;2783;48.730;8.006;2023-12-04T00:21:16;1.75;;;1.75;;
5521;SDS011;2783;48.730;8.006;2023-12-04T00:23:41;1.80;;;1.80;;
5521;SDS011;2783;48.730;8.006;2023-12-04T00:26:07;2.00;;;1.90;;
5521;SDS011;2783;48.730;8.006;2023-12-04T00:28:35;2.00;;;1.90;;
5521;SDS011;2783;48.730;8.006;2023-12-04T00:31:01;1.70;;;1.70;;
5521;SDS011;2783;48.730;8.006;2023-12-04T00:33:26;1.90;;;1.80;;
5521;SDS011;2783;48.730;8.006;2023-12-04T00:35:52;1.90;;;1.80;;
5521;SDS011;2783;48.730;8.006;2023-12-04T00:38:17;1.75;;;1.75;;
5521;SDS011;2783;48.730;8.006;2023-12-04T00:40:42;2.00;;;1.90;;
5521;SDS011;2783;48.730;8.006;2023-12-04T00:43:08;2.00;;;1.90;;
5521;SDS011;2783;48.730;8.006;2023-12-04T00:45:33;1.98;;;1.88;;
5521;SDS011;2783;48.730;8.006;2023-12-04T00:47:59;2.00;;;1.90;;
5521;SDS011;2783;48.730;8.006;2023-12-04T00:50:24;2.00;;;1.90;;
5521;SDS011;2783;48.730;8.006;2023-12-04T00:52:50;1.90;;;1.80;;
5521;SDS011;2783;48.730;8.006;2023-12-04T00:55:15;2.10;;;2.00;;
5521;SDS011;2783;48.730;8.006;2023-12-04T00:57:40;2.08;;;1.98;;
5521;SDS011;2783;48.730;8.006;2023-12-04T01:00:06;1.80;;;1.75;;
5521;SDS011;2783;48.730;8.006;2023-12-04T01:02:32;2.10;;;2.00;;
5521;SDS011;2783;48.730;8.006;2023-12-04T01:04:57;2.20;;;2.10;;
5521;SDS011;2783;48.730;8.006;2023-12-04T01:07:22;2.00;;;1.90;;
5521;SDS011;2783;48.730;8.006;2023-12-04T01:09:48;2.03;;;1.92;;
5521;SDS011;2783;48.730;8.006;2023-12-04T01:12:13;1.90;;;1.80;;
5521;SDS011;2783;48.730;8.006;2023-12-04T01:14:39;2.00;;;1.90;;
5521;SDS011;2783;48.730;8.006;2023-12-04T01:17:04;2.05;;;1.95;;
5521;SDS011;2783;48.730;8.006;2023-12-04T01:19:31;1.80;;;1.80;;
5521;SDS011;2783;48.730;8.006;2023-12-04T01:21:57;1.90;;;1.80;;
5521;SDS011;2783;48.730;8.006;2023-12-04T01:24:22;2.00;;;1.90;;
5521;SDS011;2783;48.730;8.006;2023-12-04T01:26:48;2.00;;;1.90;;
5521;SDS011;2783;48.730;8.006;2023-12-04T01:29:13;1.70;;;1.70;;
5521;SDS011;2783;48.730;8.006;2023-12-04T01:31:38;2.00;;;1.90;;
5521;SDS011;2783;48.730;8.006;2023-12-04T01:34:04;1.90;;;1.80;;
5521;SDS011;2783;48.730;8.006;2023-12-04T01:36:29;2.10;;;2.00;;
5521;SDS011;2783;48.730;8.006;2023-12-04T01:38:55;1.83;;;1.80;;
5521;SDS011;2783;48.730;8.006;2023-12-04T01:41:20;1.75;;;1.75;;
5521;SDS011;2783;48.730;8.006;2023-12-04T01:43:46;2.08;;;1.98;;
5521;SDS011;2783;48.730;8.006;2023-12-04T01:46:11;2.00;;;1.90;;
5521;SDS011;2783;48.730;8.006;2023-12-04T01:48:40;2.10;;;2.00;;
5521;SDS011;2783;48.730;8.006;2023-12-04T01:51:07;1.98;;;1.88;;
5521;SDS011;2783;48.730;8.006;2023-12-04T01:53:35;2.10;;;2.00;;
5521;SDS011;2783;48.730;8.006;2023-12-04T01:56:03;2.00;;;1.90;;
5521;SDS011;2783;48.730;8.006;2023-12-04T01:58:29;2.08;;;1.98;;
5521;SDS011;2783;48.730;8.006;2023-12-04T02:00:54;1.90;;;1.80;;
5521;SDS011;2783;48.730;8.006;2023-12-04T02:03:20;1.90;;;1.80;;
5521;SDS011;2783;48.730;8.006;2023-12-04T02:05:46;1.85;;;1.80;;
5521;SDS011;2783;48.730;8.006;2023-12-04T02:08:12;2.00;;;1.90;;
5521;SDS011;2783;48.730;8.006;2023-12-04T02:10:37;2.00;;;1.90;;
5521;SDS011;2783;48.730;8.006;2023-12-04T02:13:04;2.10;;;2.00;;
5521;SDS011;2783;48.730;8.006;2023-12-04T02:15:29;2.00;;;1.90;;
5521;SDS011;2783;48.730;8.006;2023-12-04T02:17:54;1.95;;;1.85;;
5521;SDS011;2783;48.730;8.006;2023-12-04T02:20:20;1.90;;;1.80;;
5521;SDS011;2783;48.730;8.006;2023-12-04T02:22:46;2.00;;;1.90;;
5521;SDS011;2783;48.730;8.006;2023-12-04T02:25:11;1.95;;;1.85;;
5521;SDS011;2783;48.730;8.006;2023-12-04T02:27:44;1.75;;;1.75;;
5521;SDS011;2783;48.730;8.006;2023-12-04T02:30:15;1.90;;;1.80;;
5521;SDS011;2783;48.730;8.006;2023-12-04T02:32:44;1.60;;;1.60;;
5521;SDS011;2783;48.730;8.006;2023-12-04T02:35:11;1.90;;;1.80;;
5521;SDS011;2783;48.730;8.006;2023-12-04T02:37:39;1.70;;;1.70;;
5521;SDS011;2783;48.730;8.006;2023-12-04T02:40:05;1.90;;;1.80;;
5521;SDS011;2783;48.730;8.006;2023-12-04T02:42:31;1.65;;;1.65;;
5521;SDS011;2783;48.730;8.006;2023-12-04T02:44:57;2.00;;;1.90;;
5521;SDS011;2783;48.730;8.006;2023-12-04T02:47:23;1.90;;;1.80;;
5521;SDS011;2783;48.730;8.006;2023-12-04T02:49:48;1.80;;;1.80;;
5521;SDS011;2783;48.730;8.006;2023-12-04T02:52:13;1.65;;;1.65;;
5521;SDS011;2783;48.730;8.006;2023-12-04T02:54:39;1.73;;;1.73;;
5521;SDS011;2783;48.730;8.006;2023-12-04T02:57:04;1.70;;;1.70;;
5521;SDS011;2783;48.730;8.006;2023-12-04T02:59:29;1.80;;;1.75;;
5521;SDS011;2783;48.730;8.006;2023-12-04T03:01:55;1.90;;;1.80;;
5521;SDS011;2783;48.730;8.006;2023-12-04T03:04:20;1.85;;;1.77;;
5521;SDS011;2783;48.730;8.006;2023-12-04T03:06:46;1.85;;;1.80;;
5521;SDS011;2783;48.730;8.006;2023-12-04T03:09:11;1.70;;;1.70;;
5521;SDS011;2783;48.730;8.006;2023-12-04T03:11:40;1.80;;;1.80;;
5521;SDS011;2783;48.730;8.006;2023-12-04T03:14:06;1.90;;;1.80;;
5521;SDS011;2783;48.730;8.006;2023-12-04T03:16:31;1.90;;;1.80;;
5521;SDS011;2783;48.730;8.006;2023-12-04T03:18:57;1.90;;;1.80;;
5521;SDS011;2783;48.730;8.006;2023-12-04T03:21:22;1.60;;;1.60;;
5521;SDS011;2783;48.730;8.006;2023-12-04T03:23:47;1.60;;;1.60;;
5521;SDS011;2783;48.730;8.006;2023-12-04T03:26:13;1.70;;;1.70;;
5521;SDS011;2783;48.730;8.006;2023-12-04T03:28:38;1.90;;;1.80;;
5521;SDS011;2783;48.730;8.006;2023-12-04T03:31:05;1.80;;;1.80;;
5521;SDS011;2783;48.730;8.006;2023-12-04T03:33:30;1.70;;;1.70;;
5521;SDS011;2783;48.730;8.006;2023-12-04T03:35:56;1.70;;;1.70;;
5521;SDS011;2783;48.730;8.006;2023-12-04T03:38:21;1.60;;;1.60;;
5521;SDS011;2783;48.730;8.006;2023-12-04T03:40:47;1.70;;;1.70;;
5521;SDS011;2783;48.730;8.006;2023-12-04T03:43:12;1.90;;;1.80;;
5521;SDS011;2783;48.730;8.006;2023-12-04T03:45:37;1.70;;;1.70;;
5521;SDS011;2783;48.730;8.006;2023-12-04T03:48:03;1.85;;;1.77;;
5521;SDS011;2783;48.730;8.006;2023-12-04T03:50:28;1.70;;;1.70;;
5521;SDS011;2783;48.730;8.006;2023-12-04T03:52:54;1.70;;;1.70;;
5521;SDS011;2783;48.730;8.006;2023-12-04T03:55:19;1.90;;;1.80;;
5521;SDS011;2783;48.730;8.006;2023-12-04T03:57:45;1.70;;;1.70;;
5521;SDS011;2783;48.730;8.006;2023-12-04T04:00:11;1.60;;;1.60;;
5521;SDS011;2783;48.730;8.006;2023-12-04T04:02:37;1.90;;;1.80;;
5521;SDS011;2783;48.730;8.006;2023-12-04T04:05:04;1.85;;;1.80;;
5521;SDS011;2783;48.730;8.006;2023-12-04T04:07:30;1.90;;;1.80;;
5521;SDS011;2783;48.730;8.006;2023-12-04T04:09:56;1.70;;;1.70;;
5521;SDS011;2783;48.730;8.006;2023-12-04T04:12:21;1.90;;;1.80;;
5521;SDS011;2783;48.730;8.006;2023-12-04T04:14:47;1.63;;;1.63;;
5521;SDS011;2783;48.730;8.006;2023-12-04T04:17:12;1.88;;;1.80;;
5521;SDS011;2783;48.730;8.006;2023-12-04T04:19:38;1.90;;;1.80;;
5521;SDS011;2783;48.730;8.006;2023-12-04T04:22:03;1.77;;;1.77;;
5521;SDS011;2783;48.730;8.006;2023-12-04T04:24:29;1.70;;;1.70;;
5521;SDS011;2783;48.730;8.006;2023-12-04T04:26:55;1.70;;;1.70;;
5521;SDS011;2783;48.730;8.006;2023-12-04T04:29:20;1.65;;;1.65;;
5521;SDS011;2783;48.730;8.006;2023-12-04T04:31:46;1.60;;;1.60;;
5521;SDS011;2783;48.730;8.006;2023-12-04T04:34:11;1.70;;;1.70;;
5521;SDS011;2783;48.730;8.006;2023-12-04T04:36:37;1.70;;;1.70;;
5521;SDS011;2783;48.730;8.006;2023-12-04T04:39:02;1.60;;;1.60;;
5521;SDS011;2783;48.730;8.006;2023-12-04T04:41:28;1.60;;;1.60;;
5521;SDS011;2783;48.730;8.006;2023-12-04T04:43:53;1.90;;;1.80;;
5521;SDS011;2783;48.730;8.006;2023-12-04T04:46:18;1.70;;;1.70;;
5521;SDS011;2783;48.730;8.006;2023-12-04T04:48:44;1.88;;;1.80;;
5521;SDS011;2783;48.730;8.006;2023-12-04T04:51:09;1.60;;;1.60;;
5521;SDS011;2783;48.730;8.006;2023-12-04T04:53:35;1.70;;;1.70;;
5521;SDS011;2783;48.730;8.006;2023-12-04T04:56:00;1.80;;;1.80;;
5521;SDS011;2783;48.730;8.006;2023-12-04T04:58:26;1.70;;;1.70;;
5521;SDS011;2783;48.730;8.006;2023-12-04T05:00:51;1.60;;;1.60;;
5521;SDS011;2783;48.730;8.006;2023-12-04T05:03:16;1.80;;;1.80;;
5521;SDS011;2783;48.730;8.006;2023-12-04T05:05:42;1.50;;;1.50;;
5521;SDS011;2783;48.730;8.006;2023-12-04T05:08:07;1.75;;;1.73;;
5521;SDS011;2783;48.730;8.006;2023-12-04T05:10:33;1.80;;;1.80;;
5521;SDS011;2783;48.730;8.006;2023-12-04T05:12:58;1.67;;;1.67;;
5521;SDS011;2783;48.730;8.006;2023-12-04T05:15:24;1.60;;;1.60;;
5521;SDS011;2783;48.730;8.006;2023-12-04T05:17:50;1.90;;;1.80;;
5521;SDS011;2783;48.730;8.006;2023-12-04T05:20:16;1.70;;;1.70;;
5521;SDS011;2783;48.730;8.006;2023-12-04T05:22:41;1.90;;;1.80;;
5521;SDS011;2783;48.730;8.006;2023-12-04T05:25:07;1.75;;;1.75;;
5521;SDS011;2783;48.730;8.006;2023-12-04T05:27:32;1.67;;;1.67;;
5521;SDS011;2783;48.730;8.006;2023-12-04T05:29:58;1.65;;;1.65;;
5521;SDS011;2783;48.730;8.006;2023-12-04T05:32:23;1.77;;;1.77;;
5521;SDS011;2783;48.730;8.006;2023-12-04T05:34:49;1.63;;;1.63;;
5521;SDS011;2783;48.730;8.006;2023-12-04T05:37:14;1.60;;;1.60;;
5521;SDS011;2783;48.730;8.006;2023-12-04T05:39:39;2.00;;;1.90;;
5521;SDS011;2783;48.730;8.006;2023-12-04T05:42:05;1.67;;;1.67;;
5521;SDS011;2783;48.730;8.006;2023-12-04T05:44:30;2.00;;;1.90;;
5521;SDS011;2783;48.730;8.006;2023-12-04T05:46:57;1.58;;;1.58;;
5521;SDS011;2783;48.730;8.006;2023-12-04T05:49:22;1.70;;;1.70;;
5521;SDS011;2783;48.730;8.006;2023-12-04T05:51:48;1.70;;;1.70;;
5521;SDS011;2783;48.730;8.006;2023-12-04T05:54:13;1.70;;;1.70;;
5521;SDS011;2783;48.730;8.006;2023-12-04T05:56:38;2.00;;;1.90;;
5521;SDS011;2783;48.730;8.006;2023-12-04T05:59:04;1.50;;;1.50;;
5521;SDS011;2783;48.730;8.006;2023-12-04T06:01:29;1.60;;;1.60;;
5521;SDS011;2783;48.730;8.006;2023-12-04T06:03:55;1.67;;;1.67;;
5521;SDS011;2783;48.730;8.006;2023-12-04T06:06:20;1.70;;;1.70;;
5521;SDS011;2783;48.730;8.006;2023-12-04T06:08:45;1.70;;;1.70;;
5521;SDS011;2783;48.730;8.006;2023-12-04T06:11:11;1.50;;;1.50;;
5521;SDS011;2783;48.730;8.006;2023-12-04T06:13:37;1.60;;;1.60;;
5521;SDS011;2783;48.730;8.006;2023-12-04T06:16:02;1.63;;;1.63;;
5521;SDS011;2783;48.730;8.006;2023-12-04T06:18:28;1.60;;;1.60;;
5521;SDS011;2783;48.730;8.006;2023-12-04T06:20:53;1.70;;;1.70;;
5521;SDS011;2783;48.730;8.006;2023-12-04T06:23:19;1.60;;;1.60;;
5521;SDS011;2783;48.730;8.006;2023-12-04T06:25:44;1.70;;;1.70;;
5521;SDS011;2783;48.730;8.006;2023-12-04T06:28:10;1.52;;;1.52;;
5521;SDS011;2783;48.730;8.006;2023-12-04T06:30:36;1.80;;;1.80;;
5521;SDS011;2783;48.730;8.006;2023-12-04T06:33:01;1.80;;;1.80;;
5521;SDS011;2783;48.730;8.006;2023-12-04T06:35:27;1.63;;;1.63;;
5521;SDS011;2783;48.730;8.006;2023-12-04T06:37:53;1.60;;;1.60;;
5521;SDS011;2783;48.730;8.006;2023-12-04T06:40:19;1.60;;;1.60;;
5521;SDS011;2783;48.730;8.006;2023-12-04T06:42:45;1.60;;;1.60;;
5521;SDS011;2783;48.730;8.006;2023-12-04T06:45:11;1.60;;;1.60;;
5521;SDS011;2783;48.730;8.006;2023-12-04T06:47:37;1.60;;;1.60;;
5521;SDS011;2783;48.730;8.006;2023-12-04T06:50:05;1.50;;;1.50;;
5521;SDS011;2783;48.730;8.006;2023-12-04T06:52:31;1.60;;;1.60;;
5521;SDS011;2783;48.730;8.006;2023-12-04T06:54:56;1.60;;;1.60;;
5521;SDS011;2783;48.730;8.006;2023-12-04T06:57:22;1.70;;;1.70;;
5521;SDS011;2783;48.730;8.006;2023-12-04T06:59:47;1.90;;;1.80;;
5521;SDS011;2783;48.730;8.006;2023-12-04T07:02:13;1.70;;;1.70;;
5521;SDS011;2783;48.730;8.006;2023-12-04T07:04:38;1.55;;;1.55;;
5521;SDS011;2783;48.730;8.006;2023-12-04T07:07:04;1.60;;;1.60;;
5521;SDS011;2783;48.730;8.006;2023-12-04T07:09:33;1.60;;;1.60;;
5521;SDS011;2783;48.730;8.006;2023-12-04T07:11:59;1.60;;;1.60;;
5521;SDS011;2783;48.730;8.006;2023-12-04T07:14:25;1.70;;;1.70;;
5521;SDS011;2783;48.730;8.006;2023-12-04T07:16:51;1.70;;;1.70;;
5521;SDS011;2783;48.730;8.006;2023-12-04T07:19:17;1.70;;;1.70;;
5521;SDS011;2783;48.730;8.006;2023-12-04T07:21:42;1.60;;;1.60;;
5521;SDS011;2783;48.730;8.006;2023-12-04T07:24:08;1.60;;;1.60;;
5521;SDS011;2783;48.730;8.006;2023-12-04T07:26:34;1.70;;;1.70;;
5521;SDS011;2783;48.730;8.006;2023-12-04T07:29:00;1.80;;;1.80;;
5521;SDS011;2783;48.730;8.006;2023-12-04T07:31:26;1.40;;;1.40;;
5521;SDS011;2783;48.730;8.006;2023-12-04T07:33:55;1.80;;;1.80;;
5521;SDS011;2783;48.730;8.006;2023-12-04T07:36:21;1.90;;;1.80;;
5521;SDS011;2783;48.730;8.006;2023-12-04T07:38:46;1.75;;;1.75;;
5521;SDS011;2783;48.730;8.006;2023-12-04T07:41:12;1.70;;;1.70;;
5521;SDS011;2783;48.730;8.006;2023-12-04T07:43:38;1.60;;;1.60;;
5521;SDS011;2783;48.730;8.006;2023-12-04T07:46:04;1.60;;;1.60;;
5521;SDS011;2783;48.730;8.006;2023-12-04T07:48:30;1.50;;;1.50;;
5521;SDS011;2783;48.730;8.006;2023-12-04T07:50:56;1.50;;;1.50;;
5521;SDS011;2783;48.730;8.006;2023-12-04T07:53:21;1.50;;;1.50;;
5521;SDS011;2783;48.730;8.006;2023-12-04T07:55:47;1.70;;;1.70;;
5521;SDS011;2783;48.730;8.006;2023-12-04T07:58:16;1.60;;;1.60;;
5521;SDS011;2783;48.730;8.006;2023-12-04T08:00:42;1.60;;;1.60;;
5521;SDS011;2783;48.730;8.006;2023-12-04T08:03:08;1.40;;;1.40;;
5521;SDS011;2783;48.730;8.006;2023-12-04T08:05:33;1.45;;;1.45;;
5521;SDS011;2783;48.730;8.006;2023-12-04T08:07:59;1.52;;;1.52;;
5521;SDS011;2783;48.730;8.006;2023-12-04T08:10:25;1.50;;;1.50;;
5521;SDS011;2783;48.730;8.006;2023-12-04T08:12:50;1.48;;;1.48;;
5521;SDS011;2783;48.730;8.006;2023-12-04T08:15:16;1.40;;;1.40;;
5521;SDS011;2783;48.730;8.006;2023-12-04T08:17:41;1.70;;;1.70;;
5521;SDS011;2783;48.730;8.006;2023-12-04T08:20:07;1.50;;;1.50;;
5521;SDS011;2783;48.730;8.006;2023-12-04T08:22:38;1.60;;;1.60;;
5521;SDS011;2783;48.730;8.006;2023-12-04T08:25:04;1.50;;;1.50;;
5521;SDS011;2783;48.730;8.006;2023-12-04T08:27:31;1.40;;;1.40;;
5521;SDS011;2783;48.730;8.006;2023-12-04T08:29:57;1.40;;;1.40;;
5521;SDS011;2783;48.730;8.006;2023-12-04T08:32:23;1.40;;;1.40;;
5521;SDS011;2783;48.730;8.006;2023-12-04T08:34:49;1.42;;;1.42;;
5521;SDS011;2783;48.730;8.006;2023-12-04T08:37:15;1.40;;;1.40;;
5521;SDS011;2783;48.730;8.006;2023-12-04T08:39:40;1.50;;;1.50;;
5521;SDS011;2783;48.730;8.006;2023-12-04T08:42:06;1.50;;;1.50;;
5521;SDS011;2783;48.730;8.006;2023-12-04T08:44:31;1.42;;;1.42;;
5521;SDS011;2783;48.730;8.006;2023-12-04T08:46:57;1.30;;;1.30;;
5521;SDS011;2783;48.730;8.006;2023-12-04T08:49:23;1.40;;;1.40;;
5521;SDS011;2783;48.730;8.006;2023-12-04T08:51:50;1.40;;;1.40;;
5521;SDS011;2783;48.730;8.006;2023-12-04T08:54:17;1.38;;;1.38;;
5521;SDS011;2783;48.730;8.006;2023-12-04T08:56:43;1.50;;;1.50;;
5521;SDS011;2783;48.730;8.006;2023-12-04T08:59:09;1.33;;;1.33;;
5521;SDS011;2783;48.730;8.006;2023-12-04T09:01:34;1.42;;;1.42;;
5521;SDS011;2783;48.730;8.006;2023-12-04T09:04:00;1.60;;;1.60;;
5521;SDS011;2783;48.730;8.006;2023-12-04T09:06:25;1.48;;;1.48;;
5521;SDS011;2783;48.730;8.006;2023-12-04T09:08:51;1.50;;;1.50;;
5521;SDS011;2783;48.730;8.006;2023-12-04T09:11:16;1.38;;;1.38;;
5521;SDS011;2783;48.730;8.006;2023-12-04T09:13:41;1.40;;;1.40;;
5521;SDS011;2783;48.730;8.006;2023-12-04T09:16:07;1.50;;;1.50;;
5521;SDS011;2783;48.730;8.006;2023-12-04T09:18:33;1.50;;;1.50;;
5521;SDS011;2783;48.730;8.006;2023-12-04T09:20:59;1.40;;;1.40;;
5521;SDS011;2783;48.730;8.006;2023-12-04T09:23:24;1.50;;;1.50;;
5521;SDS011;2783;48.730;8.006;2023-12-04T09:25:50;1.50;;;1.50;;
5521;SDS011;2783;48.730;8.006;2023-12-04T09:28:15;1.40;;;1.40;;
5521;SDS011;2783;48.730;8.006;2023-12-04T09:30:41;1.40;;;1.40;;
5521;SDS011;2783;48.730;8.006;2023-12-04T09:33:07;1.40;;;1.40;;
5521;SDS011;2783;48.730;8.006;2023-12-04T09:35:32;1.40;;;1.40;;
5521;SDS011;2783;48.730;8.006;2023-12-04T09:37:58;1.50;;;1.50;;
5521;SDS011;2783;48.730;8.006;2023-12-04T09:40:23;1.40;;;1.40;;
5521;SDS011;2783;48.730;8.006;2023-12-04T09:42:49;1.42;;;1.42;;
5521;SDS011;2783;48.730;8.006;2023-12-04T09:45:15;1.30;;;1.30;;
5521;SDS011;2783;48.730;8.006;2023-12-04T09:47:41;1.20;;;1.20;;
5521;SDS011;2783;48.730;8.006;2023-12-04T09:50:07;1.40;;;1.40;;
5521;SDS011;2783;48.730;8.006;2023-12-04T09:52:34;1.38;;;1.38;;
5521;SDS011;2783;48.730;8.006;2023-12-04T09:55:00;1.40;;;1.40;;
5521;SDS011;2783;48.730;8.006;2023-12-04T09:57:26;1.40;;;1.40;;
5521;SDS011;2783;48.730;8.006;2023-12-04T09:59:52;1.30;;;1.30;;
5521;SDS011;2783;48.730;8.006;2023-12-04T10:02:18;1.30;;;1.30;;
5521;SDS011;2783;48.730;8.006;2023-12-04T10:04:44;1.30;;;1.30;;
5521;SDS011;2783;48.730;8.006;2023-12-04T10:07:10;1.40;;;1.40;;
5521;SDS011;2783;48.730;8.006;2023-12-04T10:09:36;1.40;;;1.40;;
5521;SDS011;2783;48.730;8.006;2023-12-04T10:12:01;1.40;;;1.40;;
5521;SDS011;2783;48.730;8.006;2023-12-04T10:14:27;1.30;;;1.30;;
5521;SDS011;2783;48.730;8.006;2023-12-04T10:16:52;1.50;;;1.50;;
5521;SDS011;2783;48.730;8.006;2023-12-04T10:21:51;1.30;;;1.30;;
5521;SDS011;2783;48.730;8.006;2023-12-04T10:24:32;1.38;;;1.38;;
5521;SDS011;2783;48.730;8.006;2023-12-04T10:27:03;1.30;;;1.30;;
5521;SDS011;2783;48.730;8.006;2023-12-04T10:29:42;1.40;;;1.40;;
5521;SDS011;2783;48.730;8.006;2023-12-04T10:32:12;1.20;;;1.20;;
5521;SDS011;2783;48.730;8.006;2023-12-04T10:34:38;1.20;;;1.20;;
5521;SDS011;2783;48.730;8.006;2023-12-04T10:37:07;1.30;;;1.30;;
5521;SDS011;2783;48.730;8.006;2023-12-04T10:39:47;1.40;;;1.40;;
5521;SDS011;2783;48.730;8.006;2023-12-04T10:42:26;1.40;;;1.40;;
5521;SDS011;2783;48.730;8.006;2023-12-04T10:44:57;1.40;;;1.40;;
5521;SDS011;2783;48.730;8.006;2023-12-04T10:47:23;1.25;;;1.25;;
5521;SDS011;2783;48.730;8.006;2023-12-04T10:49:52;1.33;;;1.33;;
5521;SDS011;2783;48.730;8.006;2023-12-04T10:52:18;1.30;;;1.30;;
5521;SDS011;2783;48.730;8.006;2023-12-04T10:54:49;1.25;;;1.25;;
5521;SDS011;2783;48.730;8.006;2023-12-04T10:57:27;1.27;;;1.27;;
5521;SDS011;2783;48.730;8.006;2023-12-04T10:59:57;1.30;;;1.30;;
5521;SDS011;2783;48.730;8.006;2023-12-04T11:02:27;1.20;;;1.20;;
5521;SDS011;2783;48.730;8.006;2023-12-04T11:05:05;1.27;;;1.27;;
5521;SDS011;2783;48.730;8.006;2023-12-04T11:07:38;1.30;;;1.30;;
5521;SDS011;2783;48.730;8.006;2023-12-04T11:10:14;1.25;;;1.25;;
5521;SDS011;2783;48.730;8.006;2023-12-04T11:12:43;1.40;;;1.40;;
5521;SDS011;2783;48.730;8.006;2023-12-04T11:15:10;1.23;;;1.23;;
5521;SDS011;2783;48.730;8.006;2023-12-04T11:17:41;1.30;;;1.30;;
5521;SDS011;2783;48.730;8.006;2023-12-04T11:20:13;1.40;;;1.40;;
5521;SDS011;2783;48.730;8.006;2023-12-04T11:25:10;1.30;;;1.30;;
5521;SDS011;2783;48.730;8.006;2023-12-04T11:27:38;1.40;;;1.40;;
5521;SDS011;2783;48.730;8.006;2023-12-04T11:30:04;1.33;;;1.33;;
5521;SDS011;2783;48.730;8.006;2023-12-04T11:32:31;1.00;;;1.00;;
5521;SDS011;2783;48.730;8.006;2023-12-04T11:34:59;1.33;;;1.33;;
5521;SDS011;2783;48.730;8.006;2023-12-04T11:37:25;1.25;;;1.25;;
5521;SDS011;2783;48.730;8.006;2023-12-04T11:39:51;1.10;;;1.10;;
5521;SDS011;2783;48.730;8.006;2023-12-04T11:42:24;1.25;;;1.25;;
5521;SDS011;2783;48.730;8.006;2023-12-04T11:44:55;1.30;;;1.30;;
5521;SDS011;2783;48.730;8.006;2023-12-04T11:47:23;1.38;;;1.38;;
5521;SDS011;2783;48.730;8.006;2023-12-04T11:49:48;1.25;;;1.25;;
5521;SDS011;2783;48.730;8.006;2023-12-04T11:52:14;1.30;;;1.30;;
5521;SDS011;2783;48.730;8.006;2023-12-04T11:54:55;1.20;;;1.20;;
5521;SDS011;2783;48.730;8.006;2023-12-04T11:57:22;1.48;;;1.48;;
5521;SDS011;2783;48.730;8.006;2023-12-04T11:59:50;1.30;;;1.30;;
5521;SDS011;2783;48.730;8.006;2023-12-04T12:02:16;1.30;;;1.30;;
5521;SDS011;2783;48.730;8.006;2023-12-04T12:04:42;1.23;;;1.23;;
5521;SDS011;2783;48.730;8.006;2023-12-04T12:07:08;1.20;;;1.20;;
5521;SDS011;2783;48.730;8.006;2023-12-04T12:09:34;1.20;;;1.20;;
5521;SDS011;2783;48.730;8.006;2023-12-04T12:12:03;1.20;;;1.20;;
5521;SDS011;2783;48.730;8.006;2023-12-04T12:14:29;1.30;;;1.30;;
5521;SDS011;2783;48.730;8.006;2023-12-04T12:16:55;1.20;;;1.20;;
5521;SDS011;2783;48.730;8.006;2023-12-04T12:19:23;1.20;;;1.20;;
5521;SDS011;2783;48.730;8.006;2023-12-04T12:21:49;1.17;;;1.17;;
5521;SDS011;2783;48.730;8.006;2023-12-04T12:24:16;1.30;;;1.30;;
5521;SDS011;2783;48.730;8.006;2023-12-04T12:26:42;1.30;;;1.30;;
5521;SDS011;2783;48.730;8.006;2023-12-04T12:29:11;1.20;;;1.20;;
5521;SDS011;2783;48.730;8.006;2023-12-04T12:31:36;1.00;;;1.00;;
5521;SDS011;2783;48.730;8.006;2023-12-04T12:34:01;1.20;;;1.20;;
5521;SDS011;2783;48.730;8.006;2023-12-04T12:36:28;1.20;;;1.20;;
5521;SDS011;2783;48.730;8.006;2023-12-04T12:38:53;1.10;;;1.10;;
5521;SDS011;2783;48.730;8.006;2023-12-04T12:41:20;1.20;;;1.20;;
5521;SDS011;2783;48.730;8.006;2023-12-04T12:43:46;1.20;;;1.20;;
5521;SDS011;2783;48.730;8.006;2023-12-04T12:46:12;1.20;;;1.20;;
5521;SDS011;2783;48.730;8.006;2023-12-04T12:48:38;1.10;;;1.10;;
5521;SDS011;2783;48.730;8.006;2023-12-04T12:51:03;1.10;;;1.10;;
5521;SDS011;2783;48.730;8.006;2023-12-04T12:53:31;1.30;;;1.30;;
5521;SDS011;2783;48.730;8.006;2023-12-04T12:55:59;1.30;;;1.30;;
5521;SDS011;2783;48.730;8.006;2023-12-04T12:58:25;1.20;;;1.20;;
5521;SDS011;2783;48.730;8.006;2023-12-04T13:00:51;1.13;;;1.13;;
5521;SDS011;2783;48.730;8.006;2023-12-04T13:03:16;1.30;;;1.30;;
5521;SDS011;2783;48.730;8.006;2023-12-04T13:05:42;1.25;;;1.25;;
5521;SDS011;2783;48.730;8.006;2023-12-04T13:08:08;1.08;;;1.08;;
5521;SDS011;2783;48.730;8.006;2023-12-04T13:10:34;1.20;;;1.20;;
5521;SDS011;2783;48.730;8.006;2023-12-04T13:12:59;1.30;;;1.30;;
5521;SDS011;2783;48.730;8.006;2023-12-04T13:15:25;1.38;;;1.38;;
5521;SDS011;2783;48.730;8.006;2023-12-04T13:17:51;1.20;;;1.20;;
5521;SDS011;2783;48.730;8.006;2023-12-04T13:20:17;1.08;;;1.08;;
5521;SDS011;2783;48.730;8.006;2023-12-04T13:22:42;1.17;;;1.17;;
5521;SDS011;2783;48.730;8.006;2023-12-04T13:25:08;1.15;;;1.15;;
5521;SDS011;2783;48.730;8.006;2023-12-04T13:27:38;1.20;;;1.20;;
5521;SDS011;2783;48.730;8.006;2023-12-04T13:30:04;1.10;;;1.10;;
5521;SDS011;2783;48.730;8.006;2023-12-04T13:32:31;1.20;;;1.20;;
5521;SDS011;2783;48.730;8.006;2023-12-04T13:34:58;1.20;;;1.20;;
5521;SDS011;2783;48.730;8.006;2023-12-04T13:37:24;1.40;;;1.40;;
5521;SDS011;2783;48.730;8.006;2023-12-04T13:39:51;1.10;;;1.10;;
5521;SDS011;2783;48.730;8.006;2023-12-04T13:42:23;1.30;;;1.30;;
5521;SDS011;2783;48.730;8.006;2023-12-04T13:45:10;1.23;;;1.23;;
5521;SDS011;2783;48.730;8.006;2023-12-04T13:47:37;1.10;;;1.10;;
5521;SDS011;2783;48.730;8.006;2023-12-04T13:50:06;1.20;;;1.20;;
5521;SDS011;2783;48.730;8.006;2023-12-04T13:52:35;1.13;;;1.13;;
5521;SDS011;2783;48.730;8.006;2023-12-04T13:55:01;1.10;;;1.10;;
5521;SDS011;2783;48.730;8.006;2023-12-04T13:57:36;1.15;;;1.15;;
5521;SDS011;2783;48.730;8.006;2023-12-04T14:00:09;1.27;;;1.27;;
5521;SDS011;2783;48.730;8.006;2023-12-04T14:02:35;1.30;;;1.30;;
5521;SDS011;2783;48.730;8.006;2023-12-04T14:05:02;1.20;;;1.20;;
5521;SDS011;2783;48.730;8.006;2023-12-04T14:07:28;1.25;;;1.25;;
5521;SDS011;2783;48.730;8.006;2023-12-04T14:09:53;1.20;;;1.20;;
5521;SDS011;2783;48.730;8.006;2023-12-04T14:12:19;1.05;;;1.05;;
5521;SDS011;2783;48.730;8.006;2023-12-04T14:14:44;1.20;;;1.20;;
5521;SDS011;2783;48.730;8.006;2023-12-04T14:17:09;1.30;;;1.30;;
5521;SDS011;2783;48.730;8.006;2023-12-04T14:19:37;1.20;;;1.20;;
5521;SDS011;2783;48.730;8.006;2023-12-04T14:22:04;1.15;;;1.15;;
5521;SDS011;2783;48.730;8.006;2023-12-04T14:24:30;1.17;;;1.17;;
5521;SDS011;2783;48.730;8.006;2023-12-04T14:26:56;1.20;;;1.20;;
5521;SDS011;2783;48.730;8.006;2023-12-04T14:29:21;1.30;;;1.30;;
5521;SDS011;2783;48.730;8.006;2023-12-04T14:31:46;1.30;;;1.30;;
5521;SDS011;2783;48.730;8.006;2023-12-04T14:34:12;1.25;;;1.25;;
5521;SDS011;2783;48.730;8.006;2023-12-04T14:36:37;1.20;;;1.20;;
5521;SDS011;2783;48.730;8.006;2023-12-04T14:39:03;1.20;;;1.20;;
5521;SDS011;2783;48.730;8.006;2023-12-04T14:41:30;1.30;;;1.30;;
5521;SDS011;2783;48.730;8.006;2023-12-04T14:43:56;1.40;;;1.40;;
5521;SDS011;2783;48.730;8.006;2023-12-04T14:46:21;1.30;;;1.30;;
5521;SDS011;2783;48.730;8.006;2023-12-04T14:48:47;1.20;;;1.20;;
5521;SDS011;2783;48.730;8.006;2023-12-04T14:51:12;1.23;;;1.23;;
5521;SDS011;2783;48.730;8.006;2023-12-04T14:53:38;1.20;;;1.20;;
5521;SDS011;2783;48.730;8.006;2023-12-04T14:56:31;1.45;;;1.45;;
5521;SDS011;2783;48.730;8.006;2023-12-04T14:59:12;1.20;;;1.20;;
5521;SDS011;2783;48.730;8.006;2023-12-04T15:01:57;1.30;;;1.30;;
5521;SDS011;2783;48.730;8.006;2023-12-04T15:04:41;1.40;;;1.40;;
5521;SDS011;2783;48.730;8.006;2023-12-04T15:07:06;1.13;;;1.13;;
5521;SDS011;2783;48.730;8.006;2023-12-04T15:09:50;1.15;;;1.15;;
5521;SDS011;2783;48.730;8.006;2023-12-04T15:12:16;1.17;;;1.17;;
5521;SDS011;2783;48.730;8.006;2023-12-04T15:14:41;1.23;;;1.23;;
5521;SDS011;2783;48.730;8.006;2023-12-04T15:17:39;1.27;;;1.27;;